sensor_id;sensor_type;location;lat;lon;timestamp;pressure;altitude;pressure_sealevel;temperature;humidity
6833;BME280;3454;42.654;23.378;2023-02-13T00:01:49;96157.88;;;0.32;100.00
6833;BME280;3454;42.654;23.378;2023-02-13T00:04:14;96169.50;;;0.33;100.00
6833;BME280;3454;42.654;23.378;2023-02-13T00:06:39;96189.41;;;0.37;100.00
6833;BME280;3454;42.654;23.378;2023-02-13T00:09:05;96182.78;;;0.35;100.00
6833;BME280;3454;42.654;23.378;2023-02-13T00:11:35;96180.34;;;0.33;100.00
6833;BME280;3454;42.654;23.378;2023-02-13T00:14:01;96171.31;;;0.26;100.00
6833;BME280;3454;42.654;23.378;2023-02-13T00:16:26;96172.97;;;0.27;100.00
6833;BME280;3454;42.654;23.378;2023-02-13T00:18:51;96176.94;;;0.36;100.00
6833;BME280;3454;42.654;23.378;2023-02-13T00:21:17;96168.22;;;0.15;100.00
6833;BME280;3454;42.654;23.378;2023-02-13T00:23:42;96182.28;;;0.19;100.00
6833;BME280;3454;42.654;23.378;2023-02-13T00:26:11;96189.25;;;0.45;100.00
6833;BME280;3454;42.654;23.378;2023-02-13T00:28:37;96198.13;;;0.59;100.00
6833;BME280;3454;42.654;23.378;2023-02-13T00:31:13;96212.13;;;0.68;100.00
6833;BME280;3454;42.654;23.378;2023-02-13T00:33:39;96195.03;;;0.48;100.00
6833;BME280;3454;42.654;23.378;2023-02-13T00:36:18;96180.25;;;0.38;100.00
6833;BME280;3454;42.654;23.378;2023-02-13T00:38:44;96174.50;;;0.33;100.00
6833;BME280;3454;42.654;23.378;2023-02-13T00:41:10;96186.09;;;0.37;100.00
6833;BME280;3454;42.654;23.378;2023-02-13T00:43:35;96165.47;;;0.27;100.00
6833;BME280;3454;42.654;23.378;2023-02-13T00:46:01;96183.53;;;0.40;100.00
6833;BME280;3454;42.654;23.378;2023-02-13T00:48:29;96192.59;;;0.45;100.00
6833;BME280;3454;42.654;23.378;2023-02-13T00:50:55;96201.75;;;0.45;100.00
6833;BME280;3454;42.654;23.378;2023-02-13T00:53:22;96202.63;;;0.44;100.00
6833;BME280;3454;42.654;23.378;2023-02-13T00:55:48;96189.63;;;0.28;100.00
6833;BME280;3454;42.654;23.378;2023-02-13T00:58:14;96199.97;;;0.51;100.00
6833;BME280;3454;42.654;23.378;2023-02-13T01:00:39;96190.16;;;0.42;100.00
6833;BME280;3454;42.654;23.378;2023-02-13T01:03:05;96202.69;;;0.41;100.00
6833;BME280;3454;42.654;23.378;2023-02-13T01:05:31;96207.56;;;0.47;100.00
6833;BME280;3454;42.654;23.378;2023-02-13T01:07:57;96215.72;;;0.56;100.00
6833;BME280;3454;42.654;23.378;2023-02-13T01:10:22;96216.63;;;0.51;100.00
6833;BME280;3454;42.654;23.378;2023-02-13T01:12:48;96212.53;;;0.48;100.00
6833;BME280;3454;42.654;23.378;2023-02-13T01:15:14;96205.97;;;0.43;100.00
6833;BME280;3454;42.654;23.378;2023-02-13T01:17:40;96208.25;;;0.53;100.00
6833;BME280;3454;42.654;23.378;2023-02-13T01:20:07;96195.03;;;0.48;100.00
6833;BME280;3454;42.654;23.378;2023-02-13T01:22:33;96205.97;;;0.43;100.00
6833;BME280;3454;42.654;23.378;2023-02-13T01:24:58;96214.88;;;0.56;100.00
6833;BME280;3454;42.654;23.378;2023-02-13T01:27:24;96218.16;;;0.58;100.00
6833;BME280;3454;42.654;23.378;2023-02-13T01:29:49;96215.47;;;0.67;100.00
6833;BME280;3454;42.654;23.378;2023-02-13T01:32:15;96226.72;;;0.86;100.00
6833;BME280;3454;42.654;23.378;2023-02-13T01:34:40;96242.47;;;0.91;100.00
6833;BME280;3454;42.654;23.378;2023-02-13T01:37:06;96235.06;;;0.85;100.00
6833;BME280;3454;42.654;23.378;2023-02-13T01:39:31;96226.88;;;0.80;100.00
6833;BME280;3454;42.654;23.378;2023-02-13T01:41:57;96240.09;;;0.85;100.00
6833;BME280;3454;42.654;23.378;2023-02-13T01:47:14;96221.91;;;0.77;100.00
6833;BME280;3454;42.654;23.378;2023-02-13T01:49:41;96217.13;;;0.68;100.00
6833;BME280;3454;42.654;23.378;2023-02-13T01:52:10;96202.38;;;0.56;100.00
6833;BME280;3454;42.654;23.378;2023-02-13T01:54:36;96216.47;;;0.60;100.00
6833;BME280;3454;42.654;23.378;2023-02-13T01:57:08;96185.97;;;0.43;100.00
6833;BME280;3454;42.654;23.378;2023-02-13T01:59:46;96215.56;;;0.62;100.00
6833;BME280;3454;42.654;23.378;2023-02-13T02:02:13;96204.38;;;0.40;100.00
6833;BME280;3454;42.654;23.378;2023-02-13T02:04:41;96205.16;;;0.42;100.00
6833;BME280;3454;42.654;23.378;2023-02-13T02:07:15;96209.91;;;0.53;100.00
6833;BME280;3454;42.654;23.378;2023-02-13T02:09:42;96217.16;;;0.65;100.00
6833;BME280;3454;42.654;23.378;2023-02-13T02:12:12;96209.16;;;0.49;100.00
6833;BME280;3454;42.654;23.378;2023-02-13T02:14:40;96214.13;;;0.51;100.00
6833;BME280;3454;42.654;23.378;2023-02-13T02:17:06;96213.22;;;0.56;100.00
6833;BME280;3454;42.654;23.378;2023-02-13T02:19:43;96219.00;;;0.57;100.00
6833;BME280;3454;42.654;23.378;2023-02-13T02:33:28;96231.38;;;0.64;100.00
6833;BME280;3454;42.654;23.378;2023-02-13T02:38:39;96222.69;;;0.80;100.00
6833;BME280;3454;42.654;23.378;2023-02-13T02:41:26;96256.47;;;1.00;100.00
6833;BME280;3454;42.654;23.378;2023-02-13T02:46:38;96220.28;;;0.76;100.00
6833;BME280;3454;42.654;23.378;2023-02-13T02:49:37;96242.53;;;0.88;100.00
6833;BME280;3454;42.654;23.378;2023-02-13T02:52:45;96253.72;;;1.10;100.00
6833;BME280;3454;42.654;23.378;2023-02-13T03:01:00;96251.88;;;0.80;100.00
6833;BME280;3454;42.654;23.378;2023-02-13T03:03:46;96248.66;;;0.75;100.00
6833;BME280;3454;42.654;23.378;2023-02-13T03:06:47;96250.44;;;0.70;100.00
6833;BME280;3454;42.654;23.378;2023-02-13T03:09:19;96225.56;;;0.64;100.00
6833;BME280;3454;42.654;23.378;2023-02-13T03:12:13;96234.59;;;0.69;100.00
6833;BME280;3454;42.654;23.378;2023-02-13T03:15:01;96232.91;;;0.70;100.00
6833;BME280;3454;42.654;23.378;2023-02-13T03:17:26;96227.13;;;0.68;100.00
6833;BME280;3454;42.654;23.378;2023-02-13T03:20:29;96240.44;;;0.70;100.00
6833;BME280;3454;42.654;23.378;2023-02-13T03:23:42;96233.97;;;0.60;100.00
6833;BME280;3454;42.654;23.378;2023-02-13T03:29:06;96260.06;;;0.88;100.00
6833;BME280;3454;42.654;23.378;2023-02-13T03:32:03;96273.66;;;1.15;100.00
6833;BME280;3454;42.654;23.378;2023-02-13T03:34:35;96274.06;;;1.33;100.00
6833;BME280;3454;42.654;23.378;2023-02-13T03:37:30;96275.97;;;0.85;100.00
6833;BME280;3454;42.654;23.378;2023-02-13T03:40:41;96278.66;;;1.15;100.00
6833;BME280;3454;42.654;23.378;2023-02-13T03:43:32;96290.25;;;1.19;100.00
6833;BME280;3454;42.654;23.378;2023-02-13T03:46:01;96237.00;;;3.53;100.00
6833;BME280;3454;42.654;23.378;2023-02-13T03:48:36;96328.44;;;2.63;100.00
6833;BME280;3454;42.654;23.378;2023-02-13T03:51:33;96351.28;;;2.54;100.00
6833;BME280;3454;42.654;23.378;2023-02-13T03:54:05;96325.91;;;2.00;100.00
6833;BME280;3454;42.654;23.378;2023-02-13T03:56:33;96276.50;;;1.72;100.00
6833;BME280;3454;42.654;23.378;2023-02-13T03:59:21;96276.31;;;1.45;100.00
6833;BME280;3454;42.654;23.378;2023-02-13T04:04:34;96238.75;;;1.07;100.00
6833;BME280;3454;42.654;23.378;2023-02-13T04:07:10;96236.59;;;0.92;100.00
6833;BME280;3454;42.654;23.378;2023-02-13T04:09:39;96243.19;;;0.96;100.00
6833;BME280;3454;42.654;23.378;2023-02-13T04:12:16;96256.94;;;1.15;100.00
6833;BME280;3454;42.654;23.378;2023-02-13T04:14:56;96272.41;;;1.32;100.00
6833;BME280;3454;42.654;23.378;2023-02-13T04:17:29;96276.59;;;1.32;100.00
6833;BME280;3454;42.654;23.378;2023-02-13T04:20:03;96273.53;;;1.21;100.00
6833;BME280;3454;42.654;23.378;2023-02-13T04:22:29;96260.22;;;1.17;100.00
6833;BME280;3454;42.654;23.378;2023-02-13T04:24:54;96248.53;;;1.18;100.00
6833;BME280;3454;42.654;23.378;2023-02-13T04:27:20;96273.94;;;1.39;100.00
6833;BME280;3454;42.654;23.378;2023-02-13T04:29:45;96269.63;;;1.44;100.00
6833;BME280;3454;42.654;23.378;2023-02-13T04:32:11;96272.72;;;1.54;100.00
6833;BME280;3454;42.654;23.378;2023-02-13T04:34:38;96297.34;;;1.72;100.00
6833;BME280;3454;42.654;23.378;2023-02-13T04:37:03;96288.56;;;1.56;100.00
6833;BME280;3454;42.654;23.378;2023-02-13T04:39:29;96280.44;;;1.46;100.00
6833;BME280;3454;42.654;23.378;2023-02-13T04:41:54;96264.44;;;1.52;100.00
6833;BME280;3454;42.654;23.378;2023-02-13T04:44:19;96273.56;;;1.54;100.00
6833;BME280;3454;42.654;23.378;2023-02-13T04:46:45;96292.28;;;1.75;100.00
6833;BME280;3454;42.654;23.378;2023-02-13T04:49:10;96287.56;;;1.63;100.00
6833;BME280;3454;42.654;23.378;2023-02-13T04:51:36;96305.84;;;1.66;100.00
6833;BME280;3454;42.654;23.378;2023-02-13T04:54:02;96361.50;;;1.81;100.00
6833;BME280;3454;42.654;23.378;2023-02-13T04:56:27;96362.50;;;1.74;100.00
6833;BME280;3454;42.654;23.378;2023-02-13T04:58:54;96349.53;;;1.56;100.00
6833;BME280;3454;42.654;23.378;2023-02-13T05:01:20;96361.34;;;1.51;100.00
6833;BME280;3454;42.654;23.378;2023-02-13T05:03:46;96347.97;;;1.51;100.00
6833;BME280;3454;42.654;23.378;2023-02-13T05:06:11;96331.75;;;1.30;100.00
6833;BME280;3454;42.654;23.378;2023-02-13T05:08:37;96282.00;;;1.14;100.00
6833;BME280;3454;42.654;23.378;2023-02-13T05:11:02;96296.22;;;1.13;100.00
6833;BME280;3454;42.654;23.378;2023-02-13T05:13:28;96337.41;;;1.38;100.00
6833;BME280;3454;42.654;23.378;2023-02-13T05:15:53;96329.19;;;1.33;100.00
6833;BME280;3454;42.654;23.378;2023-02-13T05:18:19;96328.34;;;1.33;100.00
6833;BME280;3454;42.654;23.378;2023-02-13T05:20:44;96321.59;;;1.36;100.00
6833;BME280;3454;42.654;23.378;2023-02-13T05:23:13;96357.03;;;1.56;100.00
6833;BME280;3454;42.654;23.378;2023-02-13T05:25:48;96346.72;;;1.33;100.00
6833;BME280;3454;42.654;23.378;2023-02-13T05:28:14;96308.63;;;1.18;100.00
6833;BME280;3454;42.654;23.378;2023-02-13T05:30:58;96329.41;;;1.23;100.00
6833;BME280;3454;42.654;23.378;2023-02-13T05:33:24;96306.34;;;1.07;100.00
6833;BME280;3454;42.654;23.378;2023-02-13T05:35:50;96332.72;;;1.23;100.00
6833;BME280;3454;42.654;23.378;2023-02-13T05:38:15;96332.84;;;1.19;100.00
6833;BME280;3454;42.654;23.378;2023-02-13T05:40:41;96312.75;;;1.20;100.00
6833;BME280;3454;42.654;23.378;2023-02-13T05:43:06;96330.19;;;1.25;100.00
6833;BME280;3454;42.654;23.378;2023-02-13T05:45:32;96330.91;;;1.31;100.00
6833;BME280;3454;42.654;23.378;2023-02-13T05:47:57;96387.53;;;1.75;100.00
6833;BME280;3454;42.654;23.378;2023-02-13T05:50:23;96388.78;;;1.57;100.00
6833;BME280;3454;42.654;23.378;2023-02-13T05:52:48;96377.56;;;1.34;100.00
6833;BME280;3454;42.654;23.378;2023-02-13T05:55:14;96324.75;;;1.06;100.00
6833;BME280;3454;42.654;23.378;2023-02-13T05:57:39;96346.84;;;1.26;100.00
6833;BME280;3454;42.654;23.378;2023-02-13T06:00:05;96375.81;;;1.39;100.00
6833;BME280;3454;42.654;23.378;2023-02-13T06:02:31;96407.25;;;1.53;100.00
6833;BME280;3454;42.654;23.378;2023-02-13T06:04:57;96432.78;;;1.69;100.00
6833;BME280;3454;42.654;23.378;2023-02-13T06:07:22;96457.75;;;1.74;100.00
6833;BME280;3454;42.654;23.378;2023-02-13T06:09:48;96453.09;;;1.57;100.00
6833;BME280;3454;42.654;23.378;2023-02-13T06:12:13;96436.41;;;1.56;100.00
6833;BME280;3454;42.654;23.378;2023-02-13T06:14:39;96415.91;;;1.39;100.00
6833;BME280;3454;42.654;23.378;2023-02-13T06:17:04;96433.22;;;1.48;100.00
6833;BME280;3454;42.654;23.378;2023-02-13T06:19:29;96429.03;;;1.48;100.00
6833;BME280;3454;42.654;23.378;2023-02-13T06:21:55;96411.13;;;1.27;100.00
6833;BME280;3454;42.654;23.378;2023-02-13T06:24:20;96408.38;;;1.39;100.00
6833;BME280;3454;42.654;23.378;2023-02-13T06:26:46;96407.31;;;1.49;100.00
6833;BME280;3454;42.654;23.378;2023-02-13T06:29:11;96385.47;;;1.55;100.00
6833;BME280;3454;42.654;23.378;2023-02-13T06:31:37;96398.94;;;1.50;100.00
6833;BME280;3454;42.654;23.378;2023-02-13T06:34:02;96432.03;;;1.65;100.00
6833;BME280;3454;42.654;23.378;2023-02-13T06:36:28;96455.13;;;1.80;100.00
6833;BME280;3454;42.654;23.378;2023-02-13T06:38:53;96479.09;;;1.91;100.00
6833;BME280;3454;42.654;23.378;2023-02-13T06:41:18;96441.84;;;1.75;100.00
6833;BME280;3454;42.654;23.378;2023-02-13T06:43:44;96441.22;;;1.65;100.00
6833;BME280;3454;42.654;23.378;2023-02-13T06:46:09;96444.44;;;1.70;100.00
6833;BME280;3454;42.654;23.378;2023-02-13T06:48:35;96452.75;;;1.72;100.00
6833;BME280;3454;42.654;23.378;2023-02-13T06:51:01;96438.72;;;1.65;100.00
6833;BME280;3454;42.654;23.378;2023-02-13T06:53:27;96432.66;;;1.75;100.00
6833;BME280;3454;42.654;23.378;2023-02-13T06:55:53;96430.84;;;1.80;100.00
6833;BME280;3454;42.654;23.378;2023-02-13T06:58:19;96447.84;;;2.06;100.00
6833;BME280;3454;42.654;23.378;2023-02-13T07:00:54;96451.09;;;2.09;100.00
6833;BME280;3454;42.654;23.378;2023-02-13T07:03:25;96447.56;;;2.18;100.00
6833;BME280;3454;42.654;23.378;2023-02-13T07:05:50;96455.03;;;2.19;100.00
6833;BME280;3454;42.654;23.378;2023-02-13T07:08:17;96465.63;;;2.32;100.00
6833;BME280;3454;42.654;23.378;2023-02-13T07:10:42;96438.97;;;2.26;100.00
6833;BME280;3454;42.654;23.378;2023-02-13T07:13:09;96475.06;;;2.56;100.00
6833;BME280;3454;42.654;23.378;2023-02-13T07:15:35;96506.41;;;2.74;100.00
6833;BME280;3454;42.654;23.378;2023-02-13T07:18:02;96475.75;;;2.63;100.00
6833;BME280;3454;42.654;23.378;2023-02-13T07:20:27;96451.50;;;2.62;100.00
6833;BME280;3454;42.654;23.378;2023-02-13T07:22:57;96465.81;;;2.56;100.00
6833;BME280;3454;42.654;23.378;2023-02-13T07:25:22;96431.59;;;2.20;100.00
6833;BME280;3454;42.654;23.378;2023-02-13T07:27:48;96438.72;;;2.37;100.00
6833;BME280;3454;42.654;23.378;2023-02-13T07:30:13;96437.63;;;2.47;100.00
6833;BME280;3454;42.654;23.378;2023-02-13T07:32:39;96464.81;;;2.64;100.00
6833;BME280;3454;42.654;23.378;2023-02-13T07:35:05;96459.22;;;2.52;100.00
6833;BME280;3454;42.654;23.378;2023-02-13T07:37:30;96481.41;;;2.69;100.00
6833;BME280;3454;42.654;23.378;2023-02-13T07:39:56;96471.53;;;2.63;100.00
6833;BME280;3454;42.654;23.378;2023-02-13T07:42:21;96449.09;;;2.57;100.00
6833;BME280;3454;42.654;23.378;2023-02-13T07:44:47;96423.28;;;2.52;100.00
6833;BME280;3454;42.654;23.378;2023-02-13T07:47:12;96433.19;;;2.58;100.00
6833;BME280;3454;42.654;23.378;2023-02-13T07:49:37;96446.00;;;2.80;100.00
6833;BME280;3454;42.654;23.378;2023-02-13T07:52:04;96472.09;;;2.74;100.00
6833;BME280;3454;42.654;23.378;2023-02-13T07:54:29;96422.66;;;2.42;100.00
6833;BME280;3454;42.654;23.378;2023-02-13T07:56:56;96481.78;;;2.88;100.00
6833;BME280;3454;42.654;23.378;2023-02-13T07:59:21;96442.59;;;2.82;100.00
6833;BME280;3454;42.654;23.378;2023-02-13T08:01:46;96465.25;;;2.79;100.00
6833;BME280;3454;42.654;23.378;2023-02-13T08:04:19;96469.66;;;3.03;100.00
6833;BME280;3454;42.654;23.378;2023-02-13T08:06:44;96514.69;;;3.09;100.00
6833;BME280;3454;42.654;23.378;2023-02-13T08:09:19;96485.09;;;3.20;100.00
6833;BME280;3454;42.654;23.378;2023-02-13T08:12:06;96496.00;;;3.21;100.00
6833;BME280;3454;42.654;23.378;2023-02-13T08:14:32;96469.63;;;3.05;100.00
6833;BME280;3454;42.654;23.378;2023-02-13T08:16:58;96462.56;;;3.17;100.00
6833;BME280;3454;42.654;23.378;2023-02-13T08:19:25;96474.19;;;3.21;100.00
6833;BME280;3454;42.654;23.378;2023-02-13T08:21:50;96484.22;;;3.23;100.00
6833;BME280;3454;42.654;23.378;2023-02-13T08:24:16;96507.72;;;3.20;100.00
6833;BME280;3454;42.654;23.378;2023-02-13T08:26:42;96493.03;;;3.07;100.00
6833;BME280;3454;42.654;23.378;2023-02-13T08:29:08;96441.81;;;2.80;100.00
6833;BME280;3454;42.654;23.378;2023-02-13T08:31:34;96463.09;;;2.98;100.00
6833;BME280;3454;42.654;23.378;2023-02-13T08:34:00;96461.00;;;3.13;100.00
6833;BME280;3454;42.654;23.378;2023-02-13T08:36:25;96457.53;;;3.19;100.00
6833;BME280;3454;42.654;23.378;2023-02-13T08:38:51;96512.88;;;3.16;100.00
6833;BME280;3454;42.654;23.378;2023-02-13T08:41:17;96484.38;;;3.17;100.00
6833;BME280;3454;42.654;23.378;2023-02-13T08:43:43;96467.28;;;2.97;100.00
6833;BME280;3454;42.654;23.378;2023-02-13T08:46:09;96477.28;;;3.00;100.00
6833;BME280;3454;42.654;23.378;2023-02-13T08:48:34;96467.59;;;3.17;100.00
6833;BME280;3454;42.654;23.378;2023-02-13T08:51:04;96490.19;;;3.17;100.00
6833;BME280;3454;42.654;23.378;2023-02-13T08:53:32;96447.28;;;2.94;100.00
6833;BME280;3454;42.654;23.378;2023-02-13T08:55:58;96483.28;;;3.25;100.00
6833;BME280;3454;42.654;23.378;2023-02-13T08:58:23;96496.16;;;3.15;100.00
6833;BME280;3454;42.654;23.378;2023-02-13T09:00:48;96487.56;;;3.22;100.00
6833;BME280;3454;42.654;23.378;2023-02-13T09:03:14;96487.06;;;3.11;100.00
6833;BME280;3454;42.654;23.378;2023-02-13T09:05:40;96460.69;;;2.93;100.00
6833;BME280;3454;42.654;23.378;2023-02-13T09:08:06;96464.75;;;2.99;100.00
6833;BME280;3454;42.654;23.378;2023-02-13T09:10:32;96490.63;;;3.02;100.00
6833;BME280;3454;42.654;23.378;2023-02-13T09:12:58;96475.72;;;2.96;100.00
6833;BME280;3454;42.654;23.378;2023-02-13T09:15:25;96446.22;;;2.72;100.00
6833;BME280;3454;42.654;23.378;2023-02-13T09:17:50;96447.22;;;2.65;100.00
6833;BME280;3454;42.654;23.378;2023-02-13T09:20:16;96425.34;;;2.70;100.00
6833;BME280;3454;42.654;23.378;2023-02-13T09:22:42;96458.91;;;2.98;100.00
6833;BME280;3454;42.654;23.378;2023-02-13T09:25:08;96455.28;;;3.08;100.00
6833;BME280;3454;42.654;23.378;2023-02-13T09:27:35;96482.09;;;3.38;100.00
6833;BME280;3454;42.654;23.378;2023-02-13T09:30:01;96528.13;;;3.40;100.00
6833;BME280;3454;42.654;23.378;2023-02-13T09:32:27;96523.22;;;3.67;100.00
6833;BME280;3454;42.654;23.378;2023-02-13T09:34:52;96552.75;;;3.89;100.00
6833;BME280;3454;42.654;23.378;2023-02-13T09:37:18;96523.88;;;3.42;100.00
6833;BME280;3454;42.654;23.378;2023-02-13T09:39:44;96486.22;;;3.41;100.00
6833;BME280;3454;42.654;23.378;2023-02-13T09:44:53;96510.84;;;3.59;100.00
6833;BME280;3454;42.654;23.378;2023-02-13T09:47:29;96552.78;;;4.17;100.00
6833;BME280;3454;42.654;23.378;2023-02-13T09:52:37;96607.66;;;4.34;100.00
6833;BME280;3454;42.654;23.378;2023-02-13T09:55:23;96596.44;;;4.71;100.00
6833;BME280;3454;42.654;23.378;2023-02-13T10:00:59;96658.03;;;5.92;100.00
6833;BME280;3454;42.654;23.378;2023-02-13T10:06:44;96651.63;;;5.82;100.00
6833;BME280;3454;42.654;23.378;2023-02-13T10:09:34;96682.97;;;6.26;100.00
6833;BME280;3454;42.654;23.378;2023-02-13T10:17:33;96727.38;;;7.22;81.90
6833;BME280;3454;42.654;23.378;2023-02-13T10:25:57;96595.03;;;6.35;78.23
6833;BME280;3454;42.654;23.378;2023-02-13T10:28:35;96610.34;;;6.54;78.51
6833;BME280;3454;42.654;23.378;2023-02-13T10:31:14;96608.38;;;6.39;78.28
6833;BME280;3454;42.654;23.378;2023-02-13T10:33:46;96661.88;;;6.71;75.05
6833;BME280;3454;42.654;23.378;2023-02-13T10:36:26;96689.03;;;7.53;73.55
6833;BME280;3454;42.654;23.378;2023-02-13T11:00:24;96834.06;;;9.73;62.92
6833;BME280;3454;42.654;23.378;2023-02-13T11:02:54;96804.34;;;9.92;63.42
6833;BME280;3454;42.654;23.378;2023-02-13T11:05:35;96865.25;;;10.47;60.77
6833;BME280;3454;42.654;23.378;2023-02-13T11:08:01;96806.47;;;10.01;61.71
6833;BME280;3454;42.654;23.378;2023-02-13T11:10:27;96868.56;;;10.32;59.38
6833;BME280;3454;42.654;23.378;2023-02-13T11:12:53;96876.50;;;10.60;59.03
6833;BME280;3454;42.654;23.378;2023-02-13T11:15:26;96885.97;;;10.90;58.18
6833;BME280;3454;42.654;23.378;2023-02-13T11:17:55;96867.84;;;10.96;57.22
6833;BME280;3454;42.654;23.378;2023-02-13T11:20:24;96815.75;;;11.50;57.23
6833;BME280;3454;42.654;23.378;2023-02-13T11:22:51;96743.03;;;10.82;56.98
6833;BME280;3454;42.654;23.378;2023-02-13T11:25:22;96697.31;;;10.33;57.71
6833;BME280;3454;42.654;23.378;2023-02-13T11:28:03;96660.41;;;10.08;58.61
6833;BME280;3454;42.654;23.378;2023-02-13T11:30:36;96684.63;;;9.64;57.08
6833;BME280;3454;42.654;23.378;2023-02-13T11:33:08;96643.44;;;9.59;58.72
6833;BME280;3454;42.654;23.378;2023-02-13T11:35:46;96649.91;;;9.65;57.85
6833;BME280;3454;42.654;23.378;2023-02-13T11:38:22;96584.59;;;9.34;60.18
6833;BME280;3454;42.654;23.378;2023-02-13T11:40:50;96648.31;;;10.13;57.81
6833;BME280;3454;42.654;23.378;2023-02-13T11:48:34;96667.97;;;10.43;56.12
6833;BME280;3454;42.654;23.378;2023-02-13T11:51:00;96650.03;;;10.46;56.86
6833;BME280;3454;42.654;23.378;2023-02-13T11:53:34;96640.25;;;10.38;56.14
6833;BME280;3454;42.654;23.378;2023-02-13T11:56:09;96664.03;;;10.37;55.71
6833;BME280;3454;42.654;23.378;2023-02-13T11:58:43;96680.66;;;10.75;54.59
6833;BME280;3454;42.654;23.378;2023-02-13T12:03:58;96637.91;;;10.66;55.08
6833;BME280;3454;42.654;23.378;2023-02-13T12:06:25;96647.53;;;11.22;54.57
6833;BME280;3454;42.654;23.378;2023-02-13T12:08:51;96685.59;;;11.55;52.82
6833;BME280;3454;42.654;23.378;2023-02-13T12:13:50;96720.78;;;11.94;50.97
6833;BME280;3454;42.654;23.378;2023-02-13T12:18:49;96722.97;;;12.43;48.65
6833;BME280;3454;42.654;23.378;2023-02-13T12:23:57;96608.28;;;11.86;52.36
6833;BME280;3454;42.654;23.378;2023-02-13T12:26:37;96656.00;;;12.26;50.17
6833;BME280;3454;42.654;23.378;2023-02-13T12:37:18;96644.75;;;11.86;48.29
6833;BME280;3454;42.654;23.378;2023-02-13T12:46:03;96639.91;;;11.52;48.16
6833;BME280;3454;42.654;23.378;2023-02-13T12:48:58;96583.75;;;11.10;49.46
6833;BME280;3454;42.654;23.378;2023-02-13T12:54:13;96584.16;;;10.57;49.01
6833;BME280;3454;42.654;23.378;2023-02-13T12:56:52;96619.09;;;11.00;47.60
6833;BME280;3454;42.654;23.378;2023-02-13T13:05:26;96641.81;;;11.48;46.15
6833;BME280;3454;42.654;23.378;2023-02-13T13:08:21;96648.72;;;11.46;45.56
6833;BME280;3454;42.654;23.378;2023-02-13T13:14:08;96548.78;;;10.37;46.72
6833;BME280;3454;42.654;23.378;2023-02-13T13:17:10;96601.94;;;10.88;46.83
6833;BME280;3454;42.654;23.378;2023-02-13T13:22:45;96585.50;;;11.39;46.70
6833;BME280;3454;42.654;23.378;2023-02-13T13:27:45;96588.88;;;11.53;46.09
6833;BME280;3454;42.654;23.378;2023-02-13T13:30:27;96569.94;;;11.43;46.38
6833;BME280;3454;42.654;23.378;2023-02-13T13:33:02;96600.50;;;11.73;45.68
6833;BME280;3454;42.654;23.378;2023-02-13T13:35:29;96567.84;;;11.36;46.09
6833;BME280;3454;42.654;23.378;2023-02-13T13:40:43;96508.97;;;11.12;47.66
6833;BME280;3454;42.654;23.378;2023-02-13T13:51:08;96485.34;;;10.20;48.48
6833;BME280;3454;42.654;23.378;2023-02-13T13:54:17;96462.72;;;10.15;49.29
6833;BME280;3454;42.654;23.378;2023-02-13T14:05:02;96483.81;;;10.62;48.34
6833;BME280;3454;42.654;23.378;2023-02-13T14:07:37;96499.72;;;10.66;47.79
6833;BME280;3454;42.654;23.378;2023-02-13T14:10:04;96454.31;;;10.29;49.09
6833;BME280;3454;42.654;23.378;2023-02-13T14:14:56;96420.41;;;9.83;50.38
6833;BME280;3454;42.654;23.378;2023-02-13T14:20:25;96369.16;;;9.28;52.14
6833;BME280;3454;42.654;23.378;2023-02-13T14:22:53;96365.34;;;9.37;51.90
6833;BME280;3454;42.654;23.378;2023-02-13T14:25:24;96382.56;;;9.63;51.70
6833;BME280;3454;42.654;23.378;2023-02-13T14:27:56;96363.34;;;9.42;51.86
6833;BME280;3454;42.654;23.378;2023-02-13T14:30:36;96369.69;;;9.81;51.90
6833;BME280;3454;42.654;23.378;2023-02-13T14:33:19;96392.69;;;10.09;50.77
6833;BME280;3454;42.654;23.378;2023-02-13T14:35:58;96322.56;;;9.13;52.62
6833;BME280;3454;42.654;23.378;2023-02-13T14:38:25;96300.94;;;8.91;53.18
6833;BME280;3454;42.654;23.378;2023-02-13T14:40:52;96313.47;;;9.09;53.71
6833;BME280;3454;42.654;23.378;2023-02-13T14:43:26;96302.63;;;9.23;54.25
6833;BME280;3454;42.654;23.378;2023-02-13T14:48:45;96268.69;;;8.77;55.83
6833;BME280;3454;42.654;23.378;2023-02-13T14:51:19;96247.34;;;8.48;56.21
6833;BME280;3454;42.654;23.378;2023-02-13T14:53:59;96251.44;;;8.35;56.57
6833;BME280;3454;42.654;23.378;2023-02-13T14:56:27;96212.09;;;7.94;58.43
6833;BME280;3454;42.654;23.378;2023-02-13T15:01:50;96189.69;;;7.87;58.58
6833;BME280;3454;42.654;23.378;2023-02-13T15:06:49;96151.75;;;7.18;61.18
6833;BME280;3454;42.654;23.378;2023-02-13T15:11:48;96127.72;;;7.27;61.95
6833;BME280;3454;42.654;23.378;2023-02-13T15:14:33;96115.22;;;7.41;62.73
6833;BME280;3454;42.654;23.378;2023-02-13T15:17:12;96139.00;;;7.20;62.78
6833;BME280;3454;42.654;23.378;2023-02-13T15:19:46;96071.47;;;6.88;64.06
6833;BME280;3454;42.654;23.378;2023-02-13T15:22:32;96122.19;;;6.85;63.19
6833;BME280;3454;42.654;23.378;2023-02-13T15:24:59;96126.75;;;6.76;63.37
6833;BME280;3454;42.654;23.378;2023-02-13T15:27:30;96114.63;;;6.66;64.53
6833;BME280;3454;42.654;23.378;2023-02-13T15:32:40;96103.09;;;6.42;64.99
6833;BME280;3454;42.654;23.378;2023-02-13T15:35:24;96087.81;;;6.26;65.39
6833;BME280;3454;42.654;23.378;2023-02-13T15:37:49;96084.69;;;6.21;66.50
6833;BME280;3454;42.654;23.378;2023-02-13T15:40:18;96085.81;;;6.14;66.09
6833;BME280;3454;42.654;23.378;2023-02-13T15:42:46;96075.06;;;6.11;66.31
6833;BME280;3454;42.654;23.378;2023-02-13T15:45:16;96075.66;;;5.97;66.78
6833;BME280;3454;42.654;23.378;2023-02-13T15:47:44;96075.66;;;5.97;67.19
6833;BME280;3454;42.654;23.378;2023-02-13T15:50:26;95931.03;;;5.02;67.56
6833;BME280;3454;42.654;23.378;2023-02-13T15:52:53;96060.47;;;5.78;68.17
6833;BME280;3454;42.654;23.378;2023-02-13T15:55:23;96066.47;;;5.76;68.50
6833;BME280;3454;42.654;23.378;2023-02-13T15:57:53;96073.78;;;5.82;68.24
6833;BME280;3454;42.654;23.378;2023-02-13T16:00:27;96061.69;;;5.70;68.45
6833;BME280;3454;42.654;23.378;2023-02-13T16:02:54;96064.69;;;5.78;68.67
6833;BME280;3454;42.654;23.378;2023-02-13T16:05:21;96055.13;;;5.66;68.81
6833;BME280;3454;42.654;23.378;2023-02-13T16:07:52;96051.75;;;5.67;69.11
6833;BME280;3454;42.654;23.378;2023-02-13T16:10:32;96053.38;;;5.68;70.57